sensor_id;sensor_type;location;lat;lon;timestamp;pressure;altitude;pressure_sealevel;temperature;humidity
64516;BME280;50891;37.380;-122.076;2022-08-18T00:01:10;100701.72;;;30.98;32.81
64516;BME280;50891;37.380;-122.076;2022-08-18T00:03:38;100696.28;;;31.03;32.88
64516;BME280;50891;37.380;-122.076;2022-08-18T00:06:06;100695.19;;;31.09;32.95
64516;BME280;50891;37.380;-122.076;2022-08-18T00:08:32;100702.81;;;31.18;32.74
64516;BME280;50891;37.380;-122.076;2022-08-18T00:10:59;100700.63;;;31.20;32.81
64516;BME280;50891;37.380;-122.076;2022-08-18T00:13:26;100701.19;;;31.22;33.04
64516;BME280;50891;37.380;-122.076;2022-08-18T00:15:52;100700.38;;;31.32;32.75
64516;BME280;50891;37.380;-122.076;2022-08-18T00:18:18;100695.75;;;31.27;33.15
64516;BME280;50891;37.380;-122.076;2022-08-18T00:20:45;100705.00;;;31.31;33.19
64516;BME280;50891;37.380;-122.076;2022-08-18T00:23:11;100697.38;;;31.18;33.37
64516;BME280;50891;37.380;-122.076;2022-08-18T00:25:38;100696.28;;;31.08;33.30
64516;BME280;50891;37.380;-122.076;2022-08-18T00:28:04;100697.34;;;31.02;33.73
64516;BME280;50891;37.380;-122.076;2022-08-18T00:30:30;100707.69;;;31.11;33.64
64516;BME280;50891;37.380;-122.076;2022-08-18T00:32:58;100708.25;;;31.18;33.66
64516;BME280;50891;37.380;-122.076;2022-08-18T00:35:34;100711.22;;;31.11;33.69
64516;BME280;50891;37.380;-122.076;2022-08-18T00:38:03;100708.75;;;30.94;33.79
64516;BME280;50891;37.380;-122.076;2022-08-18T00:40:54;100710.94;;;30.97;33.95
64516;BME280;50891;37.380;-122.076;2022-08-18T00:43:49;100715.84;;;31.00;33.90
64516;BME280;50891;37.380;-122.076;2022-08-18T00:46:20;100714.19;;;31.04;33.57
64516;BME280;50891;37.380;-122.076;2022-08-18T00:48:47;100716.34;;;30.92;33.54
64516;BME280;50891;37.380;-122.076;2022-08-18T00:51:24;100726.69;;;30.95;33.39
64516;BME280;50891;37.380;-122.076;2022-08-18T00:54:14;100720.19;;;30.91;33.33
64516;BME280;50891;37.380;-122.076;2022-08-18T00:56:49;100728.59;;;30.95;33.05
64516;BME280;50891;37.380;-122.076;2022-08-18T00:59:25;100722.34;;;30.99;33.48
64516;BME280;50891;37.380;-122.076;2022-08-18T01:01:55;100723.44;;;31.14;33.19
64516;BME280;50891;37.380;-122.076;2022-08-18T01:07:06;100717.50;;;31.17;32.77
64516;BME280;50891;37.380;-122.076;2022-08-18T01:09:35;100725.09;;;31.20;32.76
64516;BME280;50891;37.380;-122.076;2022-08-18T01:12:01;100723.72;;;31.27;32.65
64516;BME280;50891;37.380;-122.076;2022-08-18T01:14:27;100725.91;;;31.36;32.33
64516;BME280;50891;37.380;-122.076;2022-08-18T01:16:54;100724.31;;;31.45;32.33
64516;BME280;50891;37.380;-122.076;2022-08-18T01:19:38;100725.13;;;31.56;32.11
64516;BME280;50891;37.380;-122.076;2022-08-18T01:25:24;100724.59;;;31.59;32.05
64516;BME280;50891;37.380;-122.076;2022-08-18T01:28:09;100721.84;;;31.64;32.15
64516;BME280;50891;37.380;-122.076;2022-08-18T01:30:48;100724.00;;;31.72;31.70
64516;BME280;50891;37.380;-122.076;2022-08-18T01:33:16;100718.84;;;31.76;31.85
64516;BME280;50891;37.380;-122.076;2022-08-18T01:35:46;100731.63;;;31.80;31.91
64516;BME280;50891;37.380;-122.076;2022-08-18T01:38:17;100727.28;;;31.84;31.72
64516;BME280;50891;37.380;-122.076;2022-08-18T01:40:45;100722.09;;;31.78;31.82
64516;BME280;50891;37.380;-122.076;2022-08-18T01:43:12;100724.81;;;31.83;31.89
64516;BME280;50891;37.380;-122.076;2022-08-18T01:45:40;100724.53;;;31.84;31.90
64516;BME280;50891;37.380;-122.076;2022-08-18T01:48:07;100727.28;;;31.84;31.72
64516;BME280;50891;37.380;-122.076;2022-08-18T01:50:35;100725.91;;;31.87;31.73
64516;BME280;50891;37.380;-122.076;2022-08-18T01:53:03;100727.78;;;31.91;31.79
64516;BME280;50891;37.380;-122.076;2022-08-18T01:55:39;100727.81;;;31.97;31.93
64516;BME280;50891;37.380;-122.076;2022-08-18T01:58:09;100721.00;;;31.99;32.05
64516;BME280;50891;37.380;-122.076;2022-08-18T02:00:35;100723.44;;;32.01;31.74
64516;BME280;50891;37.380;-122.076;2022-08-18T02:03:04;100722.88;;;32.04;31.50
64516;BME280;50891;37.380;-122.076;2022-08-18T02:05:37;100718.25;;;32.04;31.40
64516;BME280;50891;37.380;-122.076;2022-08-18T02:08:05;100725.88;;;32.12;31.16
64516;BME280;50891;37.380;-122.076;2022-08-18T02:10:31;100719.59;;;32.17;31.25
64516;BME280;50891;37.380;-122.076;2022-08-18T02:12:58;100732.09;;;32.18;30.95
64516;BME280;50891;37.380;-122.076;2022-08-18T02:15:24;100724.47;;;32.20;31.12
64516;BME280;50891;37.380;-122.076;2022-08-18T02:17:51;100727.72;;;32.22;31.21
64516;BME280;50891;37.380;-122.076;2022-08-18T02:20:18;100722.28;;;32.22;30.93
64516;BME280;50891;37.380;-122.076;2022-08-18T02:22:46;100730.44;;;32.22;30.62
64516;BME280;50891;37.380;-122.076;2022-08-18T02:25:13;100727.16;;;32.25;30.97
64516;BME280;50891;37.380;-122.076;2022-08-18T02:27:40;100726.59;;;32.28;30.90
64516;BME280;50891;37.380;-122.076;2022-08-18T02:30:09;100734.78;;;32.28;30.84
64516;BME280;50891;37.380;-122.076;2022-08-18T02:32:35;100729.88;;;32.30;31.02
64516;BME280;50891;37.380;-122.076;2022-08-18T02:35:03;100733.94;;;32.33;31.14
64516;BME280;50891;37.380;-122.076;2022-08-18T02:37:31;100728.50;;;32.38;31.46
64516;BME280;50891;37.380;-122.076;2022-08-18T02:39:57;100740.44;;;32.42;31.74
64516;BME280;50891;37.380;-122.076;2022-08-18T02:42:24;100741.25;;;32.38;32.07
64516;BME280;50891;37.380;-122.076;2022-08-18T02:44:50;100748.59;;;32.42;32.61
64516;BME280;50891;37.380;-122.076;2022-08-18T02:47:20;100745.59;;;32.44;32.64
64516;BME280;50891;37.380;-122.076;2022-08-18T02:49:47;100747.22;;;32.45;32.68
64516;BME280;50891;37.380;-122.076;2022-08-18T02:52:14;100746.97;;;32.41;32.66
64516;BME280;50891;37.380;-122.076;2022-08-18T02:54:40;100753.81;;;32.39;32.38
64516;BME280;50891;37.380;-122.076;2022-08-18T02:57:08;100754.38;;;32.36;32.21
64516;BME280;50891;37.380;-122.076;2022-08-18T02:59:36;100765.84;;;32.22;32.41
64516;BME280;50891;37.380;-122.076;2022-08-18T03:02:04;100766.13;;;32.16;32.57
64516;BME280;50891;37.380;-122.076;2022-08-18T03:04:32;100766.41;;;32.09;32.80
64516;BME280;50891;37.380;-122.076;2022-08-18T03:07:01;100776.47;;;32.08;32.88
64516;BME280;50891;37.380;-122.076;2022-08-18T03:09:30;100777.84;;;32.11;33.30
64516;BME280;50891;37.380;-122.076;2022-08-18T03:11:57;100786.00;;;32.11;33.21
64516;BME280;50891;37.380;-122.076;2022-08-18T03:14:24;100795.00;;;32.06;33.37
64516;BME280;50891;37.380;-122.076;2022-08-18T03:16:50;100794.19;;;32.06;33.24
64516;BME280;50891;37.380;-122.076;2022-08-18T03:19:17;100786.03;;;32.01;33.12
64516;BME280;50891;37.380;-122.076;2022-08-18T03:21:45;100791.19;;;31.97;33.12
64516;BME280;50891;37.380;-122.076;2022-08-18T03:24:12;100799.59;;;31.90;33.14
64516;BME280;50891;37.380;-122.076;2022-08-18T03:26:41;100796.06;;;31.90;32.95
64516;BME280;50891;37.380;-122.076;2022-08-18T03:29:09;100800.97;;;31.88;33.32
64516;BME280;50891;37.380;-122.076;2022-08-18T03:31:36;100801.22;;;31.86;33.29
64516;BME280;50891;37.380;-122.076;2022-08-18T03:34:05;100811.03;;;31.87;33.23
64516;BME280;50891;37.380;-122.076;2022-08-18T03:36:34;100803.13;;;31.86;33.10
64516;BME280;50891;37.380;-122.076;2022-08-18T03:39:05;100804.25;;;31.85;33.17
64516;BME280;50891;37.380;-122.076;2022-08-18T03:41:32;100812.09;;;31.86;33.28
64516;BME280;50891;37.380;-122.076;2022-08-18T03:44:00;100812.09;;;31.86;32.80
64516;BME280;50891;37.380;-122.076;2022-08-18T03:46:26;100806.66;;;31.86;33.03
64516;BME280;50891;37.380;-122.076;2022-08-18T03:48:56;100812.09;;;31.86;32.74
64516;BME280;50891;37.380;-122.076;2022-08-18T03:51:25;100822.47;;;31.89;32.98
64516;BME280;50891;37.380;-122.076;2022-08-18T03:53:55;100816.22;;;31.89;32.61
64516;BME280;50891;37.380;-122.076;2022-08-18T03:56:27;100827.34;;;31.87;33.15
64516;BME280;50891;37.380;-122.076;2022-08-18T03:58:56;100823.28;;;31.85;32.80
64516;BME280;50891;37.380;-122.076;2022-08-18T04:01:28;100830.09;;;31.82;32.76
64516;BME280;50891;37.380;-122.076;2022-08-18T04:03:57;100829.53;;;31.80;32.63
64516;BME280;50891;37.380;-122.076;2022-08-18T04:06:26;100834.16;;;31.80;32.82
64516;BME280;50891;37.380;-122.076;2022-08-18T04:08:54;100834.97;;;31.80;32.95
64516;BME280;50891;37.380;-122.076;2022-08-18T04:11:22;100832.50;;;31.79;32.68
64516;BME280;50891;37.380;-122.076;2022-08-18T04:13:48;100834.44;;;31.78;32.69
64516;BME280;50891;37.380;-122.076;2022-08-18T04:16:15;100830.91;;;31.78;32.66
64516;BME280;50891;37.380;-122.076;2022-08-18T04:18:42;100833.31;;;31.79;32.90
64516;BME280;50891;37.380;-122.076;2022-08-18T04:21:10;100836.34;;;31.78;32.82
64516;BME280;50891;37.380;-122.076;2022-08-18T04:23:39;100848.03;;;31.78;32.76
64516;BME280;50891;37.380;-122.076;2022-08-18T04:26:07;100850.75;;;31.78;32.87
64516;BME280;50891;37.380;-122.076;2022-08-18T04:28:34;100850.19;;;31.76;32.84
64516;BME280;50891;37.380;-122.076;2022-08-18T04:31:12;100851.00;;;31.77;32.85
64516;BME280;50891;37.380;-122.076;2022-08-18T04:33:40;100851.81;;;31.72;32.59
64516;BME280;50891;37.380;-122.076;2022-08-18T04:36:12;100860.53;;;31.69;33.03
64516;BME280;50891;37.380;-122.076;2022-08-18T04:38:39;100850.22;;;31.66;32.89
64516;BME280;50891;37.380;-122.076;2022-08-18T04:41:12;100848.00;;;31.63;33.06
64516;BME280;50891;37.380;-122.076;2022-08-18T04:43:39;100848.00;;;31.58;32.89
64516;BME280;50891;37.380;-122.076;2022-08-18T04:46:05;100848.00;;;31.58;32.97
64516;BME280;50891;37.380;-122.076;2022-08-18T04:48:34;100845.56;;;31.56;32.91
64516;BME280;50891;37.380;-122.076;2022-08-18T04:51:08;100845.28;;;31.53;32.73
64516;BME280;50891;37.380;-122.076;2022-08-18T04:53:35;100849.38;;;31.50;32.89
64516;BME280;50891;37.380;-122.076;2022-08-18T04:56:21;100855.88;;;31.49;33.09
64516;BME280;50891;37.380;-122.076;2022-08-18T04:59:11;100856.41;;;31.46;32.96
64516;BME280;50891;37.380;-122.076;2022-08-18T05:01:43;100862.41;;;31.48;33.06
64516;BME280;50891;37.380;-122.076;2022-08-18T05:04:10;100860.50;;;31.48;32.99
64516;BME280;50891;37.380;-122.076;2022-08-18T05:06:39;100858.88;;;31.47;33.13
64516;BME280;50891;37.380;-122.076;2022-08-18T05:09:07;100853.16;;;31.44;33.08
64516;BME280;50891;37.380;-122.076;2022-08-18T05:11:35;100849.06;;;31.41;32.92
64516;BME280;50891;37.380;-122.076;2022-08-18T05:14:04;100849.59;;;31.38;32.98
64516;BME280;50891;37.380;-122.076;2022-08-18T05:16:33;100856.63;;;31.34;33.23
64516;BME280;50891;37.380;-122.076;2022-08-18T05:19:03;100847.66;;;31.28;33.14
64516;BME280;50891;37.380;-122.076;2022-08-18T05:21:30;100842.19;;;31.23;33.16
64516;BME280;50891;37.380;-122.076;2022-08-18T05:23:57;100851.44;;;31.22;33.29
64516;BME280;50891;37.380;-122.076;2022-08-18T05:26:25;100852.00;;;31.19;33.45
64516;BME280;50891;37.380;-122.076;2022-08-18T05:28:53;100860.94;;;31.15;33.79
64516;BME280;50891;37.380;-122.076;2022-08-18T05:31:26;100859.28;;;31.14;33.49
64516;BME280;50891;37.380;-122.076;2022-08-18T05:33:53;100851.94;;;31.09;33.81
64516;BME280;50891;37.380;-122.076;2022-08-18T05:42:04;100857.91;;;31.06;34.08
64516;BME280;50891;37.380;-122.076;2022-08-18T05:44:40;100852.19;;;31.02;34.13
64516;BME280;50891;37.380;-122.076;2022-08-18T05:47:12;100853.28;;;31.01;34.02
64516;BME280;50891;37.380;-122.076;2022-08-18T05:49:39;100861.13;;;30.98;33.81
64516;BME280;50891;37.380;-122.076;2022-08-18T05:52:43;100858.41;;;30.93;34.01
64516;BME280;50891;37.380;-122.076;2022-08-18T05:55:16;100853.22;;;30.86;34.25
64516;BME280;50891;37.380;-122.076;2022-08-18T05:58:09;100859.16;;;30.83;34.21
64516;BME280;50891;37.380;-122.076;2022-08-18T06:00:36;100859.13;;;30.78;34.22
64516;BME280;50891;37.380;-122.076;2022-08-18T06:03:15;100855.31;;;30.74;34.48
64516;BME280;50891;37.380;-122.076;2022-08-18T06:05:51;100861.78;;;30.67;34.59
64516;BME280;50891;37.380;-122.076;2022-08-18T06:08:19;100862.88;;;30.61;34.34
64516;BME280;50891;37.380;-122.076;2022-08-18T06:10:50;100855.50;;;30.57;34.42
64516;BME280;50891;37.380;-122.076;2022-08-18T06:13:17;100864.72;;;30.56;34.64
64516;BME280;50891;37.380;-122.076;2022-08-18T06:15:51;100867.19;;;30.57;34.60
64516;BME280;50891;37.380;-122.076;2022-08-18T06:21:32;100873.63;;;30.51;34.74
64516;BME280;50891;37.380;-122.076;2022-08-18T06:27:13;100869.28;;;30.45;34.84
64516;BME280;50891;37.380;-122.076;2022-08-18T06:30:04;100871.44;;;30.43;34.88
64516;BME280;50891;37.380;-122.076;2022-08-18T06:41:14;100873.28;;;30.37;35.10
64516;BME280;50891;37.380;-122.076;2022-08-18T06:43:58;100877.09;;;30.36;35.24
64516;BME280;50891;37.380;-122.076;2022-08-18T06:52:17;100889.28;;;30.34;35.24
64516;BME280;50891;37.380;-122.076;2022-08-18T06:54:43;100885.19;;;30.31;35.21
64516;BME280;50891;37.380;-122.076;2022-08-18T06:57:37;100884.38;;;30.31;35.14
64516;BME280;50891;37.380;-122.076;2022-08-18T07:00:22;100873.78;;;30.29;35.46
64516;BME280;50891;37.380;-122.076;2022-08-18T07:03:11;100874.03;;;30.28;35.43
64516;BME280;50891;37.380;-122.076;2022-08-18T07:05:35;100883.28;;;30.27;35.29
64516;BME280;50891;37.380;-122.076;2022-08-18T07:08:29;100883.28;;;30.27;35.36
64516;BME280;50891;37.380;-122.076;2022-08-18T07:11:11;100885.16;;;30.26;35.65
64516;BME280;50891;37.380;-122.076;2022-08-18T07:13:40;100889.19;;;30.23;35.56
64516;BME280;50891;37.380;-122.076;2022-08-18T07:16:21;100892.16;;;30.22;35.55
64516;BME280;50891;37.380;-122.076;2022-08-18T07:18:48;100894.88;;;30.22;35.75
64516;BME280;50891;37.380;-122.076;2022-08-18T07:21:31;100882.66;;;30.19;35.67
64516;BME280;50891;37.380;-122.076;2022-08-18T07:24:07;100890.78;;;30.19;35.75
64516;BME280;50891;37.380;-122.076;2022-08-18T07:29:29;100885.81;;;30.11;36.00
64516;BME280;50891;37.380;-122.076;2022-08-18T07:31:58;100887.16;;;30.09;35.89
64516;BME280;50891;37.380;-122.076;2022-08-18T07:34:31;100880.63;;;30.04;36.12
64516;BME280;50891;37.380;-122.076;2022-08-18T07:37:17;100878.66;;;30.00;36.39
64516;BME280;50891;37.380;-122.076;2022-08-18T07:39:53;100884.06;;;29.95;36.50
64516;BME280;50891;37.380;-122.076;2022-08-18T07:45:16;100888.44;;;29.96;36.33
64516;BME280;50891;37.380;-122.076;2022-08-18T07:50:26;100897.34;;;29.91;36.48
64516;BME280;50891;37.380;-122.076;2022-08-18T07:53:13;100888.63;;;29.89;36.54
64516;BME280;50891;37.380;-122.076;2022-08-18T07:55:45;100886.97;;;29.88;36.67
64516;BME280;50891;37.380;-122.076;2022-08-18T08:00:58;100890.19;;;29.80;36.71
64516;BME280;50891;37.380;-122.076;2022-08-18T08:08:41;100881.94;;;29.70;36.89
64516;BME280;50891;37.380;-122.076;2022-08-18T08:11:16;100882.66;;;29.65;36.94
64516;BME280;50891;37.380;-122.076;2022-08-18T08:16:39;100882.91;;;29.58;37.12
64516;BME280;50891;37.380;-122.076;2022-08-18T08:27:52;100887.34;;;29.42;37.20
64516;BME280;50891;37.380;-122.076;2022-08-18T08:30:24;100885.63;;;29.36;37.25
64516;BME280;50891;37.380;-122.076;2022-08-18T08:35:47;100889.38;;;29.30;37.09
64516;BME280;50891;37.380;-122.076;2022-08-18T08:39:02;100890.94;;;29.26;37.39
64516;BME280;50891;37.380;-122.076;2022-08-18T08:44:59;100887.34;;;29.20;37.21
64516;BME280;50891;37.380;-122.076;2022-08-18T08:49:51;100879.97;;;29.16;37.23
64516;BME280;50891;37.380;-122.076;2022-08-18T08:52:23;100886.47;;;29.15;37.44
64516;BME280;50891;37.380;-122.076;2022-08-18T08:54:58;100886.72;;;29.13;37.44
64516;BME280;50891;37.380;-122.076;2022-08-18T08:57:30;100882.63;;;29.11;37.34
64516;BME280;50891;37.380;-122.076;2022-08-18T09:00:01;100892.91;;;29.09;37.53
64516;BME280;50891;37.380;-122.076;2022-08-18T09:05:03;100883.06;;;29.03;37.66
64516;BME280;50891;37.380;-122.076;2022-08-18T09:16:13;100898.84;;;28.89;37.85
64516;BME280;50891;37.380;-122.076;2022-08-18T09:24:20;100895.75;;;28.80;37.83
64516;BME280;50891;37.380;-122.076;2022-08-18T09:38:09;100910.13;;;28.64;38.25
64516;BME280;50891;37.380;-122.076;2022-08-18T09:41:06;100911.69;;;28.60;38.29
64516;BME280;50891;37.380;-122.076;2022-08-18T09:51:49;100923.69;;;28.47;38.61
64516;BME280;50891;37.380;-122.076;2022-08-18T09:54:17;100920.38;;;28.45;38.82
64516;BME280;50891;37.380;-122.076;2022-08-18T10:02:07;100916.53;;;28.41;38.84
64516;BME280;50891;37.380;-122.076;2022-08-18T10:04:42;100910.53;;;28.38;38.75
64516;BME280;50891;37.380;-122.076;2022-08-18T10:13:13;100908.34;;;28.35;38.79
64516;BME280;50891;37.380;-122.076;2022-08-18T10:21:22;100910.97;;;28.30;38.69
64516;BME280;50891;37.380;-122.076;2022-08-18T10:34:43;100908.25;;;28.13;38.73
64516;BME280;50891;37.380;-122.076;2022-08-18T10:37:12;100911.44;;;28.10;38.62
64516;BME280;50891;37.380;-122.076;2022-08-18T10:50:25;100899.88;;;27.98;38.77
64516;BME280;50891;37.380;-122.076;2022-08-18T10:53:54;100901.44;;;27.94;38.92
64516;BME280;50891;37.380;-122.076;2022-08-18T11:04:35;100914.16;;;27.82;38.95
64516;BME280;50891;37.380;-122.076;2022-08-18T11:09:35;100912.78;;;27.79;39.04
64516;BME280;50891;37.380;-122.076;2022-08-18T11:12:03;100928.19;;;27.79;39.09
64516;BME280;50891;37.380;-122.076;2022-08-18T11:14:55;100914.53;;;27.73;38.84
64516;BME280;50891;37.380;-122.076;2022-08-18T11:18:00;100910.22;;;27.72;38.95
64516;BME280;50891;37.380;-122.076;2022-08-18T11:20:30;100903.66;;;27.68;39.07
64516;BME280;50891;37.380;-122.076;2022-08-18T11:22:59;100907.44;;;27.67;38.76
64516;BME280;50891;37.380;-122.076;2022-08-18T11:25:33;100905.78;;;27.66;38.87
64516;BME280;50891;37.380;-122.076;2022-08-18T11:28:00;100911.19;;;27.66;38.83
64516;BME280;50891;37.380;-122.076;2022-08-18T11:30:32;100914.13;;;27.65;38.66
64516;BME280;50891;37.380;-122.076;2022-08-18T11:33:03;100906.25;;;27.63;38.71
64516;BME280;50891;37.380;-122.076;2022-08-18T11:35:48;100912.16;;;27.60;38.73
64516;BME280;50891;37.380;-122.076;2022-08-18T11:38:16;100905.09;;;27.59;38.67
64516;BME280;50891;37.380;-122.076;2022-08-18T11:40:47;100907.72;;;27.54;38.69
64516;BME280;50891;37.380;-122.076;2022-08-18T11:43:35;100907.94;;;27.52;38.70
64516;BME280;50891;37.380;-122.076;2022-08-18T11:48:43;100912.94;;;27.44;39.07
64516;BME280;50891;37.380;-122.076;2022-08-18T11:51:22;100917.16;;;27.40;39.29
64516;BME280;50891;37.380;-122.076;2022-08-18T11:56:28;100916.72;;;27.31;39.48
64516;BME280;50891;37.380;-122.076;2022-08-18T12:01:54;100916.84;;;27.24;39.74
64516;BME280;50891;37.380;-122.076;2022-08-18T12:04:28;100933.06;;;27.24;39.95
64516;BME280;50891;37.380;-122.076;2022-08-18T12:07:04;100935.75;;;27.24;39.96
64516;BME280;50891;37.380;-122.076;2022-08-18T12:09:44;100923.31;;;27.23;40.06
64516;BME280;50891;37.380;-122.076;2022-08-18T12:12:18;100935.41;;;27.21;40.04
64516;BME280;50891;37.380;-122.076;2022-08-18T12:17:25;100933.16;;;27.18;40.16
64516;BME280;50891;37.380;-122.076;2022-08-18T12:19:52;100938.53;;;27.18;40.33
64516;BME280;50891;37.380;-122.076;2022-08-18T12:22:21;100934.00;;;27.18;40.10
64516;BME280;50891;37.380;-122.076;2022-08-18T12:24:48;100931.75;;;27.15;40.28
64516;BME280;50891;37.380;-122.076;2022-08-18T12:27:17;100938.22;;;27.14;40.46
64516;BME280;50891;37.380;-122.076;2022-08-18T12:29:44;100937.63;;;27.12;40.59
64516;BME280;50891;37.380;-122.076;2022-08-18T12:32:11;100937.63;;;27.12;40.51
64516;BME280;50891;37.380;-122.076;2022-08-18T12:34:38;100926.25;;;27.10;40.61
64516;BME280;50891;37.380;-122.076;2022-08-18T12:37:07;100937.03;;;27.10;40.48
64516;BME280;50891;37.380;-122.076;2022-08-18T12:39:34;100936.47;;;27.08;40.79
64516;BME280;50891;37.380;-122.076;2022-08-18T12:42:01;100946.44;;;27.07;40.68
64516;BME280;50891;37.380;-122.076;2022-08-18T12:44:27;100950.44;;;27.05;40.93
64516;BME280;50891;37.380;-122.076;2022-08-18T12:46:54;100949.84;;;27.03;40.90
64516;BME280;50891;37.380;-122.076;2022-08-18T12:49:22;100948.22;;;27.02;41.10
64516;BME280;50891;37.380;-122.076;2022-08-18T12:51:50;100953.03;;;27.00;40.92
64516;BME280;50891;37.380;-122.076;2022-08-18T12:54:19;100955.97;;;26.98;41.09
64516;BME280;50891;37.380;-122.076;2022-08-18T12:56:47;100961.59;;;26.97;41.11
64516;BME280;50891;37.380;-122.076;2022-08-18T12:59:15;100969.94;;;26.95;41.06
64516;BME280;50891;37.380;-122.076;2022-08-18T13:01:41;100967.47;;;26.94;41.26
64516;BME280;50891;37.380;-122.076;2022-08-18T13:04:08;100973.94;;;26.93;41.44
64516;BME280;50891;37.380;-122.076;2022-08-18T13:06:37;100972.75;;;26.88;41.20
64516;BME280;50891;37.380;-122.076;2022-08-18T13:09:06;100982.47;;;26.89;41.50
64516;BME280;50891;37.380;-122.076;2022-08-18T13:11:33;100984.59;;;26.87;41.38
64516;BME280;50891;37.380;-122.076;2022-08-18T13:13:59;100987.28;;;26.87;41.23
64516;BME280;50891;37.380;-122.076;2022-08-18T13:16:27;100988.34;;;26.86;41.39
64516;BME280;50891;37.380;-122.076;2022-08-18T13:18:55;100985.88;;;26.85;41.46
64516;BME280;50891;37.380;-122.076;2022-08-18T13:21:21;100994.22;;;26.83;41.58
64516;BME280;50891;37.380;-122.076;2022-08-18T13:23:48;100998.78;;;26.83;41.49
64516;BME280;50891;37.380;-122.076;2022-08-18T13:26:31;100999.63;;;26.83;41.51
64516;BME280;50891;37.380;-122.076;2022-08-18T13:28:58;101003.38;;;26.82;41.70
64516;BME280;50891;37.380;-122.076;2022-08-18T13:31:28;101002.78;;;26.80;41.55
64516;BME280;50891;37.380;-122.076;2022-08-18T13:33:55;101006.31;;;26.81;41.62
64516;BME280;50891;37.380;-122.076;2022-08-18T13:36:22;101002.78;;;26.80;41.56
64516;BME280;50891;37.380;-122.076;2022-08-18T13:38:50;101009.03;;;26.81;41.57
64516;BME280;50891;37.380;-122.076;2022-08-18T13:41:20;101015.69;;;26.78;41.53
64516;BME280;50891;37.380;-122.076;2022-08-18T13:43:47;101014.63;;;26.79;41.51
64516;BME280;50891;37.380;-122.076;2022-08-18T13:46:18;101025.06;;;26.76;41.47
64516;BME280;50891;37.380;-122.076;2022-08-18T13:48:44;101020.97;;;26.73;41.55
64516;BME280;50891;37.380;-122.076;2022-08-18T13:51:22;101019.91;;;26.74;41.50
64516;BME280;50891;37.380;-122.076;2022-08-18T13:53:49;101022.03;;;26.72;41.56
64516;BME280;50891;37.380;-122.076;2022-08-18T13:56:15;101025.53;;;26.73;41.55
64516;BME280;50891;37.380;-122.076;2022-08-18T13:58:42;101024.94;;;26.70;41.60
64516;BME280;50891;37.380;-122.076;2022-08-18T14:01:09;101028.94;;;26.68;41.62
64516;BME280;50891;37.380;-122.076;2022-08-18T14:03:37;101033.53;;;26.67;41.51
64516;BME280;50891;37.380;-122.076;2022-08-18T14:06:04;101036.44;;;26.66;41.47
64516;BME280;50891;37.380;-122.076;2022-08-18T14:08:32;101038.53;;;26.64;41.63
64516;BME280;50891;37.380;-122.076;2022-08-18T14:11:01;101045.59;;;26.65;41.71
64516;BME280;50891;37.380;-122.076;2022-08-18T14:13:28;101041.72;;;26.61;41.71
64516;BME280;50891;37.380;-122.076;2022-08-18T14:15:56;101049.00;;;26.60;41.59
64516;BME280;50891;37.380;-122.076;2022-08-18T14:18:24;101039.81;;;26.61;41.71
64516;BME280;50891;37.380;-122.076;2022-08-18T14:20:51;101039.50;;;26.58;41.75
64516;BME280;50891;37.380;-122.076;2022-08-18T14:23:35;101038.91;;;26.56;41.65
64516;BME280;50891;37.380;-122.076;2022-08-18T14:26:20;101039.94;;;26.55;41.73
64516;BME280;50891;37.380;-122.076;2022-08-18T14:29:04;101038.91;;;26.56;41.84
64516;BME280;50891;37.380;-122.076;2022-08-18T14:31:31;101043.47;;;26.55;41.69
64516;BME280;50891;37.380;-122.076;2022-08-18T14:33:58;101040.97;;;26.54;41.72
64516;BME280;50891;37.380;-122.076;2022-08-18T14:36:24;101039.94;;;26.55;41.66
64516;BME280;50891;37.380;-122.076;2022-08-18T14:38:51;101038.28;;;26.54;41.73
64516;BME280;50891;37.380;-122.076;2022-08-18T14:41:17;101042.00;;;26.53;41.63
64516;BME280;50891;37.380;-122.076;2022-08-18T14:43:44;101039.31;;;26.53;41.73
64516;BME280;50891;37.380;-122.076;2022-08-18T14:46:12;101037.66;;;26.52;41.48
64516;BME280;50891;37.380;-122.076;2022-08-18T14:48:38;101035.19;;;26.50;41.51
64516;BME280;50891;37.380;-122.076;2022-08-18T14:51:07;101039.78;;;26.49;41.67
64516;BME280;50891;37.380;-122.076;2022-08-18T14:53:35;101037.53;;;26.46;41.56
64516;BME280;50891;37.380;-122.076;2022-08-18T14:56:03;101041.28;;;26.45;41.48
64516;BME280;50891;37.380;-122.076;2022-08-18T14:58:31;101045.03;;;26.44;41.67
64516;BME280;50891;37.380;-122.076;2022-08-18T15:01:08;101044.44;;;26.42;41.59
64516;BME280;50891;37.380;-122.076;2022-08-18T15:03:36;101042.22;;;26.39;41.64
64516;BME280;50891;37.380;-122.076;2022-08-18T15:06:05;101053.22;;;26.38;41.66
64516;BME280;50891;37.380;-122.076;2022-08-18T15:08:35;101049.13;;;26.35;41.78
64516;BME280;50891;37.380;-122.076;2022-08-18T15:11:04;101050.75;;;26.36;41.68
64516;BME280;50891;37.380;-122.076;2022-08-18T15:13:31;101053.69;;;26.35;41.80
64516;BME280;50891;37.380;-122.076;2022-08-18T15:16:03;101047.72;;;26.33;41.84
64516;BME280;50891;37.380;-122.076;2022-08-18T15:18:29;101054.13;;;26.32;41.81
64516;BME280;50891;37.380;-122.076;2022-08-18T15:20:56;101052.50;;;26.31;41.80
64516;BME280;50891;37.380;-122.076;2022-08-18T15:23:40;101062.47;;;26.30;42.04
64516;BME280;50891;37.380;-122.076;2022-08-18T15:26:24;101062.69;;;26.28;41.90